sensor_id;sensor_type;location;lat;lon;timestamp;pressure;altitude;pressure_sealevel;temperature;humidity
41078;BME280;26823;42.662;23.352;2022-09-09T00:04:32;95009.22;;;17.87;76.57
41078;BME280;26823;42.662;23.352;2022-09-09T00:07:05;95003.72;;;17.70;78.08
41078;BME280;26823;42.662;23.352;2022-09-09T00:12:33;95012.22;;;17.51;79.02
41078;BME280;26823;42.662;23.352;2022-09-09T00:15:03;94984.03;;;17.50;78.58
41078;BME280;26823;42.662;23.352;2022-09-09T00:23:25;95001.72;;;17.44;80.09
41078;BME280;26823;42.662;23.352;2022-09-09T00:28:27;94988.22;;;17.48;80.04
41078;BME280;26823;42.662;23.352;2022-09-09T00:30:56;94982.72;;;17.39;80.05
41078;BME280;26823;42.662;23.352;2022-09-09T00:33:26;94967.25;;;17.17;80.99
41078;BME280;26823;42.662;23.352;2022-09-09T00:35:57;94973.97;;;17.10;82.05
41078;BME280;26823;42.662;23.352;2022-09-09T00:43:35;94933.31;;;17.09;80.38
41078;BME280;26823;42.662;23.352;2022-09-09T00:54:45;94973.44;;;17.57;79.46
41078;BME280;26823;42.662;23.352;2022-09-09T00:57:22;94975.78;;;17.33;80.35
41078;BME280;26823;42.662;23.352;2022-09-09T00:59:57;94939.72;;;17.04;80.99
41078;BME280;26823;42.662;23.352;2022-09-09T01:05:02;94952.34;;;17.32;80.18
41078;BME280;26823;42.662;23.352;2022-09-09T01:07:30;94957.50;;;17.33;80.22
41078;BME280;26823;42.662;23.352;2022-09-09T01:09:59;94950.72;;;17.31;80.38
41078;BME280;26823;42.662;23.352;2022-09-09T01:12:46;94934.47;;;17.17;79.52
41078;BME280;26823;42.662;23.352;2022-09-09T01:15:18;94961.84;;;17.43;79.75
41078;BME280;26823;42.662;23.352;2022-09-09T01:28:31;94969.94;;;17.08;81.83
41078;BME280;26823;42.662;23.352;2022-09-09T01:30:58;94963.06;;;17.19;81.23
41078;BME280;26823;42.662;23.352;2022-09-09T01:33:24;94943.59;;;17.12;81.13
41078;BME280;26823;42.662;23.352;2022-09-09T01:38:38;94965.09;;;17.05;81.71
41078;BME280;26823;42.662;23.352;2022-09-09T01:41:04;94972.66;;;16.99;81.80
41078;BME280;26823;42.662;23.352;2022-09-09T01:43:29;94977.25;;;16.90;82.37
41078;BME280;26823;42.662;23.352;2022-09-09T01:45:56;94987.28;;;17.03;81.79
41078;BME280;26823;42.662;23.352;2022-09-09T01:48:24;94965.06;;;16.96;81.71
41078;BME280;26823;42.662;23.352;2022-09-09T01:50:50;94971.56;;;17.09;81.96
41078;BME280;26823;42.662;23.352;2022-09-09T01:53:17;94978.19;;;17.17;81.18
41078;BME280;26823;42.662;23.352;2022-09-09T02:03:54;94991.44;;;17.01;82.54
41078;BME280;26823;42.662;23.352;2022-09-09T02:06:37;94992.22;;;16.92;82.78
41078;BME280;26823;42.662;23.352;2022-09-09T02:09:06;94984.19;;;16.96;82.58
41078;BME280;26823;42.662;23.352;2022-09-09T02:11:33;94984.84;;;16.93;82.59
41078;BME280;26823;42.662;23.352;2022-09-09T02:14:10;94971.19;;;16.93;82.33
41078;BME280;26823;42.662;23.352;2022-09-09T02:16:54;94975.09;;;17.09;81.66
41078;BME280;26823;42.662;23.352;2022-09-09T02:19:35;94971.56;;;17.09;81.47
41078;BME280;26823;42.662;23.352;2022-09-09T02:22:02;94870.16;;;16.30;81.51
41078;BME280;26823;42.662;23.352;2022-09-09T02:24:34;94932.38;;;16.82;81.88
41078;BME280;26823;42.662;23.352;2022-09-09T02:27:01;94971.94;;;16.85;82.61
41078;BME280;26823;42.662;23.352;2022-09-09T02:29:41;94968.44;;;16.93;82.29
41078;BME280;26823;42.662;23.352;2022-09-09T02:32:12;94971.03;;;16.98;81.98
41078;BME280;26823;42.662;23.352;2022-09-09T02:34:43;94952.44;;;16.77;82.08
41078;BME280;26823;42.662;23.352;2022-09-09T02:37:11;94974.91;;;16.74;83.40
41078;BME280;26823;42.662;23.352;2022-09-09T02:39:37;94922.56;;;16.41;82.84
41078;BME280;26823;42.662;23.352;2022-09-09T02:42:04;94964.94;;;16.70;82.82
41078;BME280;26823;42.662;23.352;2022-09-09T02:44:29;94982.91;;;16.62;83.82
41078;BME280;26823;42.662;23.352;2022-09-09T02:47:14;94986.94;;;16.65;83.28
41078;BME280;26823;42.662;23.352;2022-09-09T02:52:32;94978.03;;;16.59;82.94
41078;BME280;26823;42.662;23.352;2022-09-09T02:55:07;94981.88;;;16.58;83.57
41078;BME280;26823;42.662;23.352;2022-09-09T02:57:36;94984.75;;;16.84;82.46
41078;BME280;26823;42.662;23.352;2022-09-09T03:00:03;94982.44;;;16.69;82.64
41078;BME280;26823;42.662;23.352;2022-09-09T03:02:30;94958.22;;;16.44;82.81
41078;BME280;26823;42.662;23.352;2022-09-09T03:04:55;94977.38;;;16.53;83.33
41078;BME280;26823;42.662;23.352;2022-09-09T03:07:21;94968.31;;;16.44;83.34
41078;BME280;26823;42.662;23.352;2022-09-09T03:09:46;94962.84;;;16.44;83.32
41078;BME280;26823;42.662;23.352;2022-09-09T03:12:12;94990.34;;;16.47;83.76
41078;BME280;26823;42.662;23.352;2022-09-09T03:14:38;94996.50;;;16.53;83.73
41078;BME280;26823;42.662;23.352;2022-09-09T03:17:04;94993.25;;;16.51;83.79
41078;BME280;26823;42.662;23.352;2022-09-09T03:19:37;94986.25;;;16.59;83.36
41078;BME280;26823;42.662;23.352;2022-09-09T03:22:02;94986.06;;;16.55;83.48
41078;BME280;26823;42.662;23.352;2022-09-09T03:24:29;94988.13;;;16.50;83.24
41078;BME280;26823;42.662;23.352;2022-09-09T03:26:55;94973.50;;;16.54;82.81
41078;BME280;26823;42.662;23.352;2022-09-09T03:29:21;94981.59;;;16.59;82.79
41078;BME280;26823;42.662;23.352;2022-09-09T03:31:46;94968.97;;;16.41;82.76
41078;BME280;26823;42.662;23.352;2022-09-09T03:34:12;94977.34;;;16.44;83.34
41078;BME280;26823;42.662;23.352;2022-09-09T03:36:39;94965.13;;;16.42;83.05
41078;BME280;26823;42.662;23.352;2022-09-09T03:39:06;94975.59;;;16.49;83.16
41078;BME280;26823;42.662;23.352;2022-09-09T03:41:31;94967.22;;;16.22;84.78
41078;BME280;26823;42.662;23.352;2022-09-09T03:43:57;94980.78;;;16.36;84.86
41078;BME280;26823;42.662;23.352;2022-09-09T03:46:24;94970.56;;;16.42;84.31
41078;BME280;26823;42.662;23.352;2022-09-09T03:48:50;94983.13;;;16.43;84.56
41078;BME280;26823;42.662;23.352;2022-09-09T03:51:17;94945.72;;;15.98;85.59
41078;BME280;26823;42.662;23.352;2022-09-09T03:53:43;94995.28;;;16.37;85.37
41078;BME280;26823;42.662;23.352;2022-09-09T03:56:09;94965.84;;;16.34;84.50
41078;BME280;26823;42.662;23.352;2022-09-09T03:58:35;94991.97;;;16.49;83.93
41078;BME280;26823;42.662;23.352;2022-09-09T04:01:06;94992.91;;;16.21;85.32
41078;BME280;26823;42.662;23.352;2022-09-09T04:03:35;94994.50;;;16.22;86.13
41078;BME280;26823;42.662;23.352;2022-09-09T04:06:02;95009.13;;;16.26;85.55
41078;BME280;26823;42.662;23.352;2022-09-09T04:08:29;95005.00;;;16.29;85.91
41078;BME280;26823;42.662;23.352;2022-09-09T04:10:56;94960.16;;;15.98;86.32
41078;BME280;26823;42.662;23.352;2022-09-09T04:13:24;94948.31;;;16.03;85.79
41078;BME280;26823;42.662;23.352;2022-09-09T04:15:54;94975.59;;;16.26;85.18
41078;BME280;26823;42.662;23.352;2022-09-09T04:18:20;94973.78;;;15.98;86.76
41078;BME280;26823;42.662;23.352;2022-09-09T04:20:50;94988.13;;;16.27;86.24
41078;BME280;26823;42.662;23.352;2022-09-09T04:23:16;94984.16;;;16.33;85.60
41078;BME280;26823;42.662;23.352;2022-09-09T04:25:45;94990.28;;;16.16;86.84
41078;BME280;26823;42.662;23.352;2022-09-09T04:28:12;94981.06;;;16.26;85.93
41078;BME280;26823;42.662;23.352;2022-09-09T04:30:38;94976.81;;;15.97;87.61
41078;BME280;26823;42.662;23.352;2022-09-09T04:33:10;94992.16;;;16.29;86.52
41078;BME280;26823;42.662;23.352;2022-09-09T04:35:37;95004.44;;;16.41;85.64
41078;BME280;26823;42.662;23.352;2022-09-09T04:38:03;94993.72;;;16.44;84.53
41078;BME280;26823;42.662;23.352;2022-09-09T04:40:30;94994.38;;;16.50;84.29
41078;BME280;26823;42.662;23.352;2022-09-09T04:43:00;95010.63;;;16.55;84.36
41078;BME280;26823;42.662;23.352;2022-09-09T04:45:25;95007.41;;;16.53;84.28
41078;BME280;26823;42.662;23.352;2022-09-09T04:47:52;95003.69;;;16.49;84.22
41078;BME280;26823;42.662;23.352;2022-09-09T04:50:17;95007.47;;;16.62;84.17
41078;BME280;26823;42.662;23.352;2022-09-09T04:52:44;94985.34;;;16.41;83.74
41078;BME280;26823;42.662;23.352;2022-09-09T04:55:09;94967.41;;;16.26;83.62
41078;BME280;26823;42.662;23.352;2022-09-09T04:57:35;94984.41;;;16.45;83.81
41078;BME280;26823;42.662;23.352;2022-09-09T05:00:01;94976.25;;;16.54;83.03
41078;BME280;26823;42.662;23.352;2022-09-09T05:02:27;94984.84;;;16.70;83.53
41078;BME280;26823;42.662;23.352;2022-09-09T05:04:52;94956.38;;;16.62;83.69
41078;BME280;26823;42.662;23.352;2022-09-09T05:07:17;94923.22;;;16.15;85.10
41078;BME280;26823;42.662;23.352;2022-09-09T05:09:44;94973.94;;;16.70;85.16
41078;BME280;26823;42.662;23.352;2022-09-09T05:12:10;94929.72;;;16.28;84.26
41078;BME280;26823;42.662;23.352;2022-09-09T05:14:36;94965.56;;;16.67;83.16
41078;BME280;26823;42.662;23.352;2022-09-09T05:17:03;94955.50;;;16.76;82.67
41078;BME280;26823;42.662;23.352;2022-09-09T05:19:28;94974.41;;;16.95;82.51
41078;BME280;26823;42.662;23.352;2022-09-09T05:21:55;94967.84;;;17.05;81.31
41078;BME280;26823;42.662;23.352;2022-09-09T05:24:21;94977.72;;;17.23;82.10
41078;BME280;26823;42.662;23.352;2022-09-09T05:26:48;94946.66;;;17.10;81.38
41078;BME280;26823;42.662;23.352;2022-09-09T05:29:14;94959.25;;;17.29;79.85
41078;BME280;26823;42.662;23.352;2022-09-09T05:31:39;94972.63;;;17.48;77.47
41078;BME280;26823;42.662;23.352;2022-09-09T05:34:06;94957.38;;;17.56;76.81
41078;BME280;26823;42.662;23.352;2022-09-09T05:36:31;94910.19;;;17.24;77.57
41078;BME280;26823;42.662;23.352;2022-09-09T05:38:57;94972.84;;;17.87;76.62
41078;BME280;26823;42.662;23.352;2022-09-09T05:41:23;94974.66;;;18.00;75.30
41078;BME280;26823;42.662;23.352;2022-09-09T05:43:49;94964.81;;;18.08;76.34
41078;BME280;26823;42.662;23.352;2022-09-09T05:46:19;94980.09;;;18.26;72.80
41078;BME280;26823;42.662;23.352;2022-09-09T05:48:46;94978.97;;;18.28;75.30
41078;BME280;26823;42.662;23.352;2022-09-09T05:51:14;94982.03;;;18.35;71.08
41078;BME280;26823;42.662;23.352;2022-09-09T05:53:44;94956.72;;;18.38;69.45
41078;BME280;26823;42.662;23.352;2022-09-09T05:58:42;94975.50;;;18.74;68.81
41078;BME280;26823;42.662;23.352;2022-09-09T06:01:13;94980.03;;;18.70;67.30
41078;BME280;26823;42.662;23.352;2022-09-09T06:03:40;94966.00;;;18.72;68.07
41078;BME280;26823;42.662;23.352;2022-09-09T06:06:11;94988.84;;;18.94;68.39
41078;BME280;26823;42.662;23.352;2022-09-09T06:08:39;94995.09;;;19.12;68.19
41078;BME280;26823;42.662;23.352;2022-09-09T06:11:17;95004.09;;;19.12;67.44
41078;BME280;26823;42.662;23.352;2022-09-09T06:13:43;95005.91;;;19.08;67.97
41078;BME280;26823;42.662;23.352;2022-09-09T06:16:10;95002.50;;;19.02;69.12
41078;BME280;26823;42.662;23.352;2022-09-09T06:18:37;94992.81;;;19.14;67.89
41078;BME280;26823;42.662;23.352;2022-09-09T06:21:09;94992.13;;;19.26;65.55
41078;BME280;26823;42.662;23.352;2022-09-09T06:23:36;94991.22;;;19.43;66.02
41078;BME280;26823;42.662;23.352;2022-09-09T06:26:04;95003.84;;;19.65;63.78
41078;BME280;26823;42.662;23.352;2022-09-09T06:28:31;95007.78;;;19.55;63.87
41078;BME280;26823;42.662;23.352;2022-09-09T06:31:01;94991.56;;;19.41;63.95
41078;BME280;26823;42.662;23.352;2022-09-09T06:33:31;95005.97;;;19.59;65.06
41078;BME280;26823;42.662;23.352;2022-09-09T06:35:57;94980.03;;;19.78;63.59
41078;BME280;26823;42.662;23.352;2022-09-09T06:38:23;94990.19;;;19.77;63.45
41078;BME280;26823;42.662;23.352;2022-09-09T06:40:56;94981.22;;;19.98;63.27
41078;BME280;26823;42.662;23.352;2022-09-09T06:43:23;94988.78;;;20.01;63.42
41078;BME280;26823;42.662;23.352;2022-09-09T06:45:59;94981.69;;;20.00;60.94
41078;BME280;26823;42.662;23.352;2022-09-09T06:48:26;94990.66;;;20.09;60.81
41078;BME280;26823;42.662;23.352;2022-09-09T06:51:23;94992.09;;;20.28;61.14
41078;BME280;26823;42.662;23.352;2022-09-09T06:53:54;95001.03;;;20.46;60.21
41078;BME280;26823;42.662;23.352;2022-09-09T06:56:33;94985.72;;;20.57;60.22
41078;BME280;26823;42.662;23.352;2022-09-09T06:59:02;95000.19;;;20.45;59.52
41078;BME280;26823;42.662;23.352;2022-09-09T07:01:30;95008.84;;;20.56;59.37
41078;BME280;26823;42.662;23.352;2022-09-09T07:03:58;95004.00;;;20.74;58.04
41078;BME280;26823;42.662;23.352;2022-09-09T07:06:31;95001.84;;;20.92;57.13
41078;BME280;26823;42.662;23.352;2022-09-09T07:09:08;95008.19;;;20.93;58.67
41078;BME280;26823;42.662;23.352;2022-09-09T07:11:38;95006.81;;;21.11;58.46
41078;BME280;26823;42.662;23.352;2022-09-09T07:14:07;95000.53;;;21.35;58.06
41078;BME280;26823;42.662;23.352;2022-09-09T07:16:33;94997.22;;;21.42;57.28
41078;BME280;26823;42.662;23.352;2022-09-09T07:18:58;94997.56;;;21.53;56.85
41078;BME280;26823;42.662;23.352;2022-09-09T07:21:25;94999.06;;;21.50;56.60
41078;BME280;26823;42.662;23.352;2022-09-09T07:23:54;94985.28;;;21.50;56.92
41078;BME280;26823;42.662;23.352;2022-09-09T07:26:22;94993.09;;;21.73;56.13
41078;BME280;26823;42.662;23.352;2022-09-09T07:28:48;94984.06;;;21.85;55.82
41078;BME280;26823;42.662;23.352;2022-09-09T07:31:20;94987.16;;;21.71;56.68
41078;BME280;26823;42.662;23.352;2022-09-09T07:33:46;94986.69;;;21.57;54.08
41078;BME280;26823;42.662;23.352;2022-09-09T07:36:15;94984.13;;;21.89;54.26
41078;BME280;26823;42.662;23.352;2022-09-09T07:38:43;94972.75;;;22.03;54.43
41078;BME280;26823;42.662;23.352;2022-09-09T07:41:17;94977.63;;;22.22;54.50
41078;BME280;26823;42.662;23.352;2022-09-09T07:43:45;94975.25;;;22.08;51.85
41078;BME280;26823;42.662;23.352;2022-09-09T07:46:12;94991.25;;;22.43;51.17
41078;BME280;26823;42.662;23.352;2022-09-09T07:48:46;94990.88;;;22.44;53.05
41078;BME280;26823;42.662;23.352;2022-09-09T07:51:18;94985.28;;;22.69;52.69
41078;BME280;26823;42.662;23.352;2022-09-09T07:53:45;95002.03;;;22.92;52.35
41078;BME280;26823;42.662;23.352;2022-09-09T07:56:14;94987.63;;;22.83;49.54
41078;BME280;26823;42.662;23.352;2022-09-09T07:58:40;94999.72;;;23.10;49.88
41078;BME280;26823;42.662;23.352;2022-09-09T08:01:12;94998.56;;;23.40;50.61
41078;BME280;26823;42.662;23.352;2022-09-09T08:03:38;94996.22;;;23.42;50.60
41078;BME280;26823;42.662;23.352;2022-09-09T08:06:06;94976.19;;;23.45;50.65
41078;BME280;26823;42.662;23.352;2022-09-09T08:08:33;94989.28;;;23.48;48.78
41078;BME280;26823;42.662;23.352;2022-09-09T08:11:07;94995.03;;;23.91;46.83
41078;BME280;26823;42.662;23.352;2022-09-09T08:13:35;94991.09;;;23.92;47.18
41078;BME280;26823;42.662;23.352;2022-09-09T08:16:11;94985.22;;;23.93;45.58
41078;BME280;26823;42.662;23.352;2022-09-09T08:18:37;94981.06;;;23.68;45.69
41078;BME280;26823;42.662;23.352;2022-09-09T08:23:37;94988.59;;;23.87;46.67
41078;BME280;26823;42.662;23.352;2022-09-09T08:26:15;94992.19;;;23.71;46.56
41078;BME280;26823;42.662;23.352;2022-09-09T08:28:41;94988.44;;;23.96;46.04
41078;BME280;26823;42.662;23.352;2022-09-09T08:31:16;94988.28;;;24.08;46.06
41078;BME280;26823;42.662;23.352;2022-09-09T08:33:42;94995.66;;;23.68;45.83
41078;BME280;26823;42.662;23.352;2022-09-09T08:36:12;94985.69;;;23.64;47.19
41078;BME280;26823;42.662;23.352;2022-09-09T08:38:38;94985.59;;;23.76;48.31
41078;BME280;26823;42.662;23.352;2022-09-09T08:41:15;94974.78;;;23.87;47.18
41078;BME280;26823;42.662;23.352;2022-09-09T08:43:46;94991.28;;;23.83;46.83
41078;BME280;26823;42.662;23.352;2022-09-09T08:46:27;94977.66;;;23.74;46.03
41078;BME280;26823;42.662;23.352;2022-09-09T08:51:51;94968.53;;;23.54;47.16
41078;BME280;26823;42.662;23.352;2022-09-09T08:54:18;94974.50;;;23.56;47.64
41078;BME280;26823;42.662;23.352;2022-09-09T08:56:44;94973.00;;;23.78;48.51
41078;BME280;26823;42.662;23.352;2022-09-09T08:59:13;94951.13;;;23.70;46.71
41078;BME280;26823;42.662;23.352;2022-09-09T09:12:27;94978.19;;;23.96;46.14
41078;BME280;26823;42.662;23.352;2022-09-09T09:14:55;94973.41;;;24.13;46.32
41078;BME280;26823;42.662;23.352;2022-09-09T09:17:25;94973.28;;;24.25;45.99
41078;BME280;26823;42.662;23.352;2022-09-09T09:19:52;94963.38;;;24.43;46.71
41078;BME280;26823;42.662;23.352;2022-09-09T09:22:20;94967.44;;;24.50;46.81
41078;BME280;26823;42.662;23.352;2022-09-09T09:27:36;94960.69;;;24.27;46.38
41078;BME280;26823;42.662;23.352;2022-09-09T09:30:17;94962.28;;;24.29;46.82
41078;BME280;26823;42.662;23.352;2022-09-09T09:32:54;94964.88;;;24.41;46.48
41078;BME280;26823;42.662;23.352;2022-09-09T09:35:21;94972.31;;;24.56;47.48
41078;BME280;26823;42.662;23.352;2022-09-09T09:37:47;94961.59;;;24.55;47.09
41078;BME280;26823;42.662;23.352;2022-09-09T09:40:18;94968.03;;;24.59;46.07
41078;BME280;26823;42.662;23.352;2022-09-09T09:42:57;94960.81;;;24.54;46.74
41078;BME280;26823;42.662;23.352;2022-09-09T09:48:00;94940.69;;;24.97;44.53
41078;BME280;26823;42.662;23.352;2022-09-09T09:50:27;94948.25;;;25.23;45.82
41078;BME280;26823;42.662;23.352;2022-09-09T09:52:55;94942.22;;;25.17;44.76
41078;BME280;26823;42.662;23.352;2022-09-09T09:55:22;94945.19;;;25.05;44.35
41078;BME280;26823;42.662;23.352;2022-09-09T09:57:49;94938.78;;;25.01;44.59
41078;BME280;26823;42.662;23.352;2022-09-09T10:00:17;94941.72;;;24.88;45.38
41078;BME280;26823;42.662;23.352;2022-09-09T10:02:45;94923.66;;;24.95;44.84
41078;BME280;26823;42.662;23.352;2022-09-09T10:05:21;94933.81;;;24.87;45.17
41078;BME280;26823;42.662;23.352;2022-09-09T10:07:59;94898.25;;;24.66;45.57
41078;BME280;26823;42.662;23.352;2022-09-09T10:10:39;94931.84;;;24.87;45.54
41078;BME280;26823;42.662;23.352;2022-09-09T10:24:07;94949.63;;;24.67;47.73
41078;BME280;26823;42.662;23.352;2022-09-09T10:35:17;94960.97;;;24.62;46.92
41078;BME280;26823;42.662;23.352;2022-09-09T10:52:07;94955.31;;;24.35;49.69
41078;BME280;26823;42.662;23.352;2022-09-09T10:57:32;94958.94;;;24.39;49.16
41078;BME280;26823;42.662;23.352;2022-09-09T11:00:04;94958.28;;;24.46;49.43
41078;BME280;26823;42.662;23.352;2022-09-09T11:02:32;94952.38;;;24.47;49.73
41078;BME280;26823;42.662;23.352;2022-09-09T11:10:29;94954.13;;;24.16;49.15
41078;BME280;26823;42.662;23.352;2022-09-09T11:13:03;94956.13;;;24.16;49.89
41078;BME280;26823;42.662;23.352;2022-09-09T11:15:46;94962.13;;;24.21;50.24
41078;BME280;26823;42.662;23.352;2022-09-09T11:18:20;94949.97;;;24.06;50.28
41078;BME280;26823;42.662;23.352;2022-09-09T11:20:50;94943.69;;;23.90;50.82
41078;BME280;26823;42.662;23.352;2022-09-09T11:23:22;94949.78;;;24.15;50.00
41078;BME280;26823;42.662;23.352;2022-09-09T11:25:55;94948.19;;;24.34;49.21
41078;BME280;26823;42.662;23.352;2022-09-09T11:41:47;94891.09;;;24.02;49.48
41078;BME280;26823;42.662;23.352;2022-09-09T11:44:29;94910.50;;;24.25;48.83
41078;BME280;26823;42.662;23.352;2022-09-09T11:46:55;94902.06;;;24.38;48.54
41078;BME280;26823;42.662;23.352;2022-09-09T11:49:42;94889.41;;;24.37;48.91
41078;BME280;26823;42.662;23.352;2022-09-09T11:52:38;94871.28;;;24.39;49.35
41078;BME280;26823;42.662;23.352;2022-09-09T11:55:24;94863.31;;;24.34;50.11
41078;BME280;26823;42.662;23.352;2022-09-09T11:58:02;94864.38;;;24.49;49.50
41078;BME280;26823;42.662;23.352;2022-09-09T12:06:33;94871.00;;;24.64;50.44
41078;BME280;26823;42.662;23.352;2022-09-09T12:09:19;94881.44;;;24.74;49.43
41078;BME280;26823;42.662;23.352;2022-09-09T12:11:48;94871.97;;;24.75;49.51
41078;BME280;26823;42.662;23.352;2022-09-09T12:14:36;94867.84;;;24.89;49.36
41078;BME280;26823;42.662;23.352;2022-09-09T12:17:29;94861.09;;;24.86;49.98
41078;BME280;26823;42.662;23.352;2022-09-09T12:20:17;94854.19;;;25.00;49.50
41078;BME280;26823;42.662;23.352;2022-09-09T12:33:19;94831.00;;;25.08;47.41
41078;BME280;26823;42.662;23.352;2022-09-09T12:35:51;94841.13;;;25.23;48.03
41078;BME280;26823;42.662;23.352;2022-09-09T12:38:36;94837.34;;;25.35;47.99
41078;BME280;26823;42.662;23.352;2022-09-09T12:41:02;94825.53;;;25.38;47.33
41078;BME280;26823;42.662;23.352;2022-09-09T12:43:28;94832.06;;;25.27;47.40
41078;BME280;26823;42.662;23.352;2022-09-09T12:46:01;94824.72;;;25.11;48.09
41078;BME280;26823;42.662;23.352;2022-09-09T12:48:39;94826.59;;;25.03;48.70
41078;BME280;26823;42.662;23.352;2022-09-09T12:51:21;94832.88;;;25.27;48.14
41078;BME280;26823;42.662;23.352;2022-09-09T12:53:51;94831.88;;;25.39;48.66
41078;BME280;26823;42.662;23.352;2022-09-09T12:56:22;94829.38;;;25.03;48.64
41078;BME280;26823;42.662;23.352;2022-09-09T12:58:51;94827.75;;;25.02;49.22
41078;BME280;26823;42.662;23.352;2022-09-09T13:01:32;94817.47;;;24.76;49.83
41078;BME280;26823;42.662;23.352;2022-09-09T13:03:59;94816.38;;;25.07;49.28
41078;BME280;26823;42.662;23.352;2022-09-09T13:06:27;94803.03;;;25.13;49.09
41078;BME280;26823;42.662;23.352;2022-09-09T13:08:54;94806.78;;;25.28;48.97
41078;BME280;26823;42.662;23.352;2022-09-09T13:11:35;94806.22;;;25.42;48.43
41078;BME280;26823;42.662;23.352;2022-09-09T13:14:03;94797.63;;;25.51;48.31
41078;BME280;26823;42.662;23.352;2022-09-09T13:16:31;94809.97;;;25.57;48.39
41078;BME280;26823;42.662;23.352;2022-09-09T13:19:16;94811.44;;;25.47;48.34
41078;BME280;26823;42.662;23.352;2022-09-09T13:21:42;94793.97;;;25.43;48.62
41078;BME280;26823;42.662;23.352;2022-09-09T13:24:40;94801.06;;;25.40;48.95
41078;BME280;26823;42.662;23.352;2022-09-09T13:27:28;94788.97;;;25.26;50.04
41078;BME280;26823;42.662;23.352;2022-09-09T13:29:55;94793.81;;;25.32;49.99
41078;BME280;26823;42.662;23.352;2022-09-09T13:32:28;94784.88;;;25.43;50.27
41078;BME280;26823;42.662;23.352;2022-09-09T13:34:56;94790.22;;;25.59;50.45
41078;BME280;26823;42.662;23.352;2022-09-09T13:37:42;94780.75;;;25.60;49.89
41078;BME280;26823;42.662;23.352;2022-09-09T13:40:19;94781.16;;;25.62;49.89
41078;BME280;26823;42.662;23.352;2022-09-09T13:42:45;94775.59;;;25.58;50.21
41078;BME280;26823;42.662;23.352;2022-09-09T13:45:21;94787.13;;;25.64;49.70
41078;BME280;26823;42.662;23.352;2022-09-09T13:47:48;94768.34;;;25.46;50.34
41078;BME280;26823;42.662;23.352;2022-09-09T13:50:23;94771.56;;;25.25;50.14
41078;BME280;26823;42.662;23.352;2022-09-09T13:52:51;94764.88;;;25.26;49.70
41078;BME280;26823;42.662;23.352;2022-09-09T13:55:19;94765.94;;;25.18;50.36
41078;BME280;26823;42.662;23.352;2022-09-09T13:57:56;94765.31;;;25.32;50.41
41078;BME280;26823;42.662;23.352;2022-09-09T14:00:23;94768.00;;;25.24;50.66
41078;BME280;26823;42.662;23.352;2022-09-09T14:02:50;94768.03;;;25.28;50.63
41078;BME280;26823;42.662;23.352;2022-09-09T14:05:17;94764.16;;;25.33;49.88
41078;BME280;26823;42.662;23.352;2022-09-09T14:07:43;94757.47;;;25.34;50.08
41078;BME280;26823;42.662;23.352;2022-09-09T14:10:10;94770.75;;;25.51;50.33
41078;BME280;26823;42.662;23.352;2022-09-09T14:12:35;94768.00;;;25.51;49.35
41078;BME280;26823;42.662;23.352;2022-09-09T14:15:05;94767.09;;;25.44;49.06
41078;BME280;26823;42.662;23.352;2022-09-09T14:17:32;94757.59;;;25.45;49.38
41078;BME280;26823;42.662;23.352;2022-09-09T14:19:57;94759.97;;;25.43;49.31
41078;BME280;26823;42.662;23.352;2022-09-09T14:22:24;94755.16;;;25.39;49.73
41078;BME280;26823;42.662;23.352;2022-09-09T14:24:49;94758.38;;;25.42;49.57
41078;BME280;26823;42.662;23.352;2022-09-09T14:27:16;94749.06;;;25.27;49.54
41078;BME280;26823;42.662;23.352;2022-09-09T14:29:41;94713.34;;;25.18;49.26
41078;BME280;26823;42.662;23.352;2022-09-09T14:32:08;94745.66;;;25.37;48.97
41078;BME280;26823;42.662;23.352;2022-09-09T14:34:34;94750.69;;;25.31;48.83
41078;BME280;26823;42.662;23.352;2022-09-09T14:37:00;94743.06;;;25.24;48.86
41078;BME280;26823;42.662;23.352;2022-09-09T14:39:25;94754.84;;;25.45;49.09
41078;BME280;26823;42.662;23.352;2022-09-09T14:41:51;94752.13;;;25.48;49.77
41078;BME280;26823;42.662;23.352;2022-09-09T14:44:16;94758.09;;;25.50;49.51
41078;BME280;26823;42.662;23.352;2022-09-09T14:46:42;94740.94;;;25.37;48.89
41078;BME280;26823;42.662;23.352;2022-09-09T14:49:08;94738.88;;;25.34;49.08
41078;BME280;26823;42.662;23.352;2022-09-09T14:51:35;94748.53;;;25.44;48.90
41078;BME280;26823;42.662;23.352;2022-09-09T14:54:01;94740.41;;;25.32;49.10
41078;BME280;26823;42.662;23.352;2022-09-09T14:56:29;94740.75;;;25.27;49.39
41078;BME280;26823;42.662;23.352;2022-09-09T14:58:56;94742.91;;;25.10;49.43
41078;BME280;26823;42.662;23.352;2022-09-09T15:01:23;94744.50;;;25.11;49.40
41078;BME280;26823;42.662;23.352;2022-09-09T15:03:50;94737.00;;;24.85;50.36
41078;BME280;26823;42.662;23.352;2022-09-09T15:06:16;94742.06;;;24.79;50.92
41078;BME280;26823;42.662;23.352;2022-09-09T15:08:43;94751.94;;;24.80;51.73
41078;BME280;26823;42.662;23.352;2022-09-09T15:11:11;94754.81;;;24.87;51.02
41078;BME280;26823;42.662;23.352;2022-09-09T15:13:38;94757.69;;;24.95;51.09
41078;BME280;26823;42.662;23.352;2022-09-09T15:16:05;94766.31;;;24.89;50.78
41078;BME280;26823;42.662;23.352;2022-09-09T15:18:32;94760.78;;;24.89;51.05
41078;BME280;26823;42.662;23.352;2022-09-09T15:21:04;94756.47;;;24.92;50.79
41078;BME280;26823;42.662;23.352;2022-09-09T15:23:34;94730.41;;;24.66;50.94
41078;BME280;26823;42.662;23.352;2022-09-09T15:25:59;94752.88;;;24.88;50.87
41078;BME280;26823;42.662;23.352;2022-09-09T15:28:25;94768.28;;;24.89;50.63
41078;BME280;26823;42.662;23.352;2022-09-09T15:30:51;94764.78;;;24.92;50.76
41078;BME280;26823;42.662;23.352;2022-09-09T15:33:18;94753.66;;;24.88;51.04
41078;BME280;26823;42.662;23.352;2022-09-09T15:35:45;94751.31;;;24.90;50.51